Time;durP1;ratioP1;P1;durP2;ratioP2;P2;SDS_P1;SDS_P2;PMS_P1;PMS_P2;Temp;Humidity;BMP_temperature;BMP_pressure;BME280_temperature;BME280_humidity;BME280_pressure;Samples;Min_cycle;Max_cycle;Signal;HPM_P1;HPM_P2
2022/06/19 00:00:59;;;;;;;2.85;2.20;;;27.10;99.90;;;;;;5107769;28;20251;-67
2022/06/19 00:03:31;;;;;;;2.17;2.00;;;27.10;99.80;;;;;;5110844;28;20754;-68
2022/06/19 00:05:59;;;;;;;2.92;2.40;;;27.20;99.70;;;;;;5113664;28;20293;-69
2022/06/19 00:08:27;;;;;;;3.67;2.17;;;27.10;99.60;;;;;;5114464;27;20630;-69
2022/06/19 00:10:53;;;;;;;2.35;2.13;;;27.10;99.60;;;;;;5114085;28;20237;-68
2022/06/19 00:13:20;;;;;;;2.85;2.53;;;27.20;99.60;;;;;;5116986;27;20229;-67
2022/06/19 00:15:47;;;;;;;3.83;2.05;;;27.20;99.60;;;;;;5113254;28;20236;-68
2022/06/19 00:18:16;;;;;;;3.05;1.95;;;27.20;99.60;;;;;;5129703;27;20205;-68
2022/06/19 00:20:43;;;;;;;2.45;2.10;;;27.20;99.60;;;;;;5121685;27;20206;-70
2022/06/19 00:23:10;;;;;;;2.47;2.10;;;27.10;99.50;;;;;;5118239;27;20778;-68
2022/06/19 00:25:37;;;;;;;2.53;2.33;;;27.20;99.40;;;;;;5117327;27;20286;-68
2022/06/19 00:28:05;;;;;;;3.10;2.30;;;27.20;99.50;;;;;;5118754;27;20218;-68
2022/06/19 00:30:32;;;;;;;5.15;2.22;;;27.10;99.50;;;;;;5116752;27;20646;-69
2022/06/19 00:33:01;;;;;;;3.50;2.17;;;27.10;99.50;;;;;;5117462;27;20728;-69
2022/06/19 00:35:30;;;;;;;2.60;2.20;;;27.20;99.80;;;;;;5118532;27;20198;-69
2022/06/19 00:37:58;;;;;;;3.17;2.08;;;27.10;99.50;;;;;;5117395;27;20226;-68
2022/06/19 00:40:27;;;;;;;2.92;2.30;;;27.10;99.30;;;;;;5118483;27;20658;-67
2022/06/19 00:42:53;;;;;;;3.33;2.30;;;27.20;99.20;;;;;;5119272;27;20225;-68
2022/06/19 00:45:36;;;;;;;2.92;2.10;;;27.20;99.00;;;;;;5119852;27;20577;-69
2022/06/19 00:48:10;;;;;;;2.95;1.85;;;27.30;98.90;;;;;;5121444;27;20660;-68
2022/06/19 00:50:39;;;;;;;2.42;2.17;;;27.30;98.90;;;;;;5113002;28;20241;-67
2022/06/19 00:53:12;;;;;;;2.35;2.15;;;27.30;99.10;;;;;;5110830;28;20269;-68
2022/06/19 00:55:43;;;;;;;3.03;1.92;;;27.30;99.50;;;;;;5124462;27;20206;-68
2022/06/19 00:58:14;;;;;;;4.35;2.40;;;27.20;99.60;;;;;;5120832;27;20621;-69
2022/06/19 01:00:43;;;;;;;2.78;1.92;;;27.10;99.60;;;;;;5121167;27;20194;-68
2022/06/19 01:03:13;;;;;;;4.45;2.20;;;27.00;99.70;;;;;;5113663;27;20217;-69
2022/06/19 01:05:44;;;;;;;3.65;2.17;;;26.90;99.90;;;;;;5115261;27;20198;-69
2022/06/19 01:08:12;;;;;;;4.80;2.25;;;26.80;99.90;;;;;;5116768;27;20205;-68
2022/06/19 01:10:42;;;;;;;2.58;1.92;;;26.70;99.90;;;;;;5119142;27;20202;-68
2022/06/19 01:13:10;;;;;;;2.30;2.10;;;26.70;99.90;;;;;;5115201;27;20695;-68
2022/06/19 01:15:38;;;;;;;2.83;2.53;;;26.60;99.90;;;;;;5118062;27;20320;-69
2022/06/19 01:18:08;;;;;;;2.45;2.22;;;26.50;99.90;;;;;;5120812;27;20208;-69
2022/06/19 01:20:36;;;;;;;2.10;1.92;;;26.40;99.90;;;;;;5117809;27;20232;-68
2022/06/19 01:23:14;;;;;;;3.92;2.45;;;26.20;99.90;;;;;;5111245;27;20230;-68
2022/06/19 01:25:43;;;;;;;3.65;2.65;;;26.10;99.90;;;;;;5111088;28;20237;-69
2022/06/19 01:30:59;;;;;;;2.40;2.20;;;26.00;99.90;;;;;;5112611;28;20311;-68
2022/06/19 01:33:32;;;;;;;3.03;2.38;;;25.90;99.90;;;;;;5114265;27;20229;-69
2022/06/19 01:36:01;;;;;;;2.92;2.30;;;25.80;99.90;;;;;;5111874;28;20288;-68
2022/06/19 01:38:30;;;;;;;3.10;2.30;;;25.80;99.90;;;;;;5116302;28;20228;-69
2022/06/19 01:41:01;;;;;;;2.40;2.20;;;25.70;99.90;;;;;;5118631;28;20201;-67
2022/06/19 01:43:29;;;;;;;2.60;2.15;;;25.70;99.90;;;;;;5115694;28;20210;-68
2022/06/19 01:45:57;;;;;;;2.15;1.90;;;25.60;99.90;;;;;;5105751;28;20336;-67
2022/06/19 01:48:28;;;;;;;3.25;2.08;;;25.50;99.90;;;;;;5118614;27;20217;-66
2022/06/19 01:50:56;;;;;;;2.42;2.10;;;25.50;99.90;;;;;;5121335;27;20197;-67
2022/06/19 01:53:27;;;;;;;2.35;2.15;;;25.40;99.90;;;;;;5116995;27;20639;-68
2022/06/19 01:55:54;;;;;;;2.20;2.00;;;25.30;99.90;;;;;;5124858;27;20287;-70
2022/06/19 01:58:27;;;;;;;2.80;2.00;;;25.20;99.90;;;;;;5120573;27;20561;-69
2022/06/19 02:00:54;;;;;;;2.05;1.80;;;25.20;99.90;;;;;;5124575;27;20201;-70
2022/06/19 02:03:28;;;;;;;2.22;2.00;;;25.10;99.90;;;;;;5120142;27;20300;-68
2022/06/19 02:05:56;;;;;;;2.33;2.13;;;25.00;99.90;;;;;;5120936;27;20208;-69
2022/06/19 02:08:24;;;;;;;3.10;2.15;;;25.00;99.90;;;;;;5126187;27;20194;-69
2022/06/19 02:10:52;;;;;;;2.58;2.10;;;25.00;99.90;;;;;;5118603;27;20262;-68
2022/06/19 02:13:21;;;;;;;2.17;1.80;;;25.00;99.90;;;;;;5128827;27;20224;-68
2022/06/19 02:15:51;;;;;;;3.22;2.03;;;24.80;99.90;;;;;;5118747;27;20198;-69
2022/06/19 02:18:23;;;;;;;2.97;2.03;;;24.80;99.90;;;;;;5120043;27;20228;-69
2022/06/19 02:20:51;;;;;;;2.15;1.95;;;24.70;99.90;;;;;;5118556;28;20202;-68
2022/06/19 02:23:21;;;;;;;4.28;2.40;;;24.70;99.90;;;;;;5126229;27;20229;-69
2022/06/19 02:25:49;;;;;;;2.95;2.38;;;24.60;99.90;;;;;;5125532;27;20301;-69
2022/06/19 02:28:18;;;;;;;2.38;2.10;;;24.60;99.90;;;;;;5121936;27;20288;-68
2022/06/19 02:30:45;;;;;;;2.33;2.13;;;24.50;99.90;;;;;;5114528;27;20204;-68
2022/06/19 02:33:18;;;;;;;2.03;1.80;;;24.40;99.90;;;;;;5117813;27;20252;-69
2022/06/19 02:35:45;;;;;;;3.78;2.30;;;24.40;99.90;;;;;;5111479;27;20668;-69
2022/06/19 02:38:17;;;;;;;3.33;2.15;;;24.30;99.90;;;;;;5108331;27;20244;-69
2022/06/19 02:40:54;;;;;;;2.15;1.83;;;24.30;99.90;;;;;;5107336;28;20190;-68
2022/06/19 02:43:25;;;;;;;2.08;1.75;;;24.30;99.90;;;;;;5122126;27;20224;-68
2022/06/19 02:45:52;;;;;;;4.50;2.08;;;24.20;99.90;;;;;;5118166;27;20265;-67
2022/06/19 02:48:23;;;;;;;2.38;2.08;;;24.20;99.90;;;;;;5120749;27;20632;-70
2022/06/19 02:50:50;;;;;;;2.10;1.90;;;24.10;99.90;;;;;;5131121;27;20190;-68
2022/06/19 02:53:18;;;;;;;2.35;1.88;;;24.10;99.90;;;;;;5118836;27;20316;-69
2022/06/19 02:55:45;;;;;;;2.13;1.90;;;24.00;99.90;;;;;;5119267;27;20198;-67
2022/06/19 02:58:13;;;;;;;2.45;1.90;;;24.00;99.90;;;;;;5117965;27;20208;-68
2022/06/19 03:00:40;;;;;;;2.80;1.80;;;24.00;99.90;;;;;;5121513;27;20210;-69
2022/06/19 03:03:13;;;;;;;1.92;1.75;;;24.00;99.90;;;;;;5115062;27;20270;-69
2022/06/19 03:05:41;;;;;;;2.38;2.17;;;24.10;99.90;;;;;;5124037;27;20662;-68
2022/06/19 03:08:08;;;;;;;2.35;1.98;;;24.10;99.90;;;;;;5120184;27;20194;-69
2022/06/19 03:10:36;;;;;;;3.72;2.15;;;24.10;99.90;;;;;;5120726;27;20198;-69
2022/06/19 03:13:03;;;;;;;2.05;1.85;;;24.10;99.90;;;;;;5121949;27;20236;-68
2022/06/19 03:15:30;;;;;;;2.00;1.80;;;24.10;99.90;;;;;;5114783;28;20285;-67
2022/06/19 03:17:57;;;;;;;2.15;1.95;;;24.10;99.90;;;;;;5108619;27;20208;-69
2022/06/19 03:20:25;;;;;;;2.05;1.83;;;24.10;99.90;;;;;;5117350;27;20296;-66
2022/06/19 03:22:54;;;;;;;3.72;2.33;;;24.10;99.90;;;;;;5119087;27;20304;-68
2022/06/19 03:25:21;;;;;;;1.80;1.70;;;24.10;99.90;;;;;;5119181;27;20202;-67
2022/06/19 03:27:48;;;;;;;2.53;2.28;;;24.00;99.90;;;;;;5117296;27;20194;-69
2022/06/19 03:30:17;;;;;;;2.22;1.83;;;23.90;99.90;;;;;;5118905;27;20326;-67
2022/06/19 03:32:44;;;;;;;2.47;2.05;;;23.90;99.90;;;;;;5109890;28;20717;-70
2022/06/19 03:35:11;;;;;;;8.88;2.30;;;23.80;99.90;;;;;;5120397;27;20283;-68
2022/06/19 03:37:39;;;;;;;3.75;2.15;;;23.80;99.90;;;;;;5121202;27;20237;-67
2022/06/19 03:40:09;;;;;;;2.08;1.90;;;23.80;99.90;;;;;;5118428;27;20294;-70
2022/06/19 03:42:35;;;;;;;2.42;2.05;;;23.90;99.90;;;;;;5121421;27;20228;-67
2022/06/19 03:45:02;;;;;;;2.80;1.90;;;23.90;99.90;;;;;;5113640;27;20751;-69
2022/06/19 03:47:30;;;;;;;3.20;2.03;;;23.90;99.90;;;;;;5117401;27;20225;-68
2022/06/19 03:49:57;;;;;;;2.78;2.10;;;23.90;99.90;;;;;;5122179;27;20679;-68
2022/06/19 03:52:24;;;;;;;2.15;1.92;;;24.00;99.90;;;;;;5118233;27;20284;-69
2022/06/19 03:54:51;;;;;;;3.13;2.20;;;24.00;99.90;;;;;;5126128;27;20309;-68
2022/06/19 03:57:19;;;;;;;2.53;1.90;;;23.90;99.90;;;;;;5120471;27;20719;-68
2022/06/19 03:59:46;;;;;;;3.30;2.20;;;23.80;99.90;;;;;;5120467;27;20245;-70
2022/06/19 04:02:13;;;;;;;2.40;2.15;;;23.80;99.90;;;;;;5117110;27;20604;-68
2022/06/19 04:04:40;;;;;;;2.28;2.00;;;23.80;99.90;;;;;;5115687;27;20222;-69
2022/06/19 04:07:08;;;;;;;2.22;1.83;;;23.80;99.90;;;;;;5124830;27;20313;-67
2022/06/19 04:09:35;;;;;;;2.25;1.75;;;23.80;99.90;;;;;;5119634;27;20225;-71
2022/06/19 04:12:02;;;;;;;2.85;2.22;;;23.70;99.90;;;;;;5111191;27;20285;-67
2022/06/19 04:14:30;;;;;;;3.13;2.03;;;23.80;99.90;;;;;;5112790;27;20221;-69
2022/06/19 04:16:57;;;;;;;3.08;2.03;;;23.80;99.90;;;;;;5119994;27;20237;-69
2022/06/19 04:19:24;;;;;;;2.80;2.42;;;23.80;99.90;;;;;;5120613;27;20321;-68
2022/06/19 04:21:51;;;;;;;3.28;2.10;;;23.80;99.90;;;;;;5118620;27;20296;-68
2022/06/19 04:24:20;;;;;;;2.00;1.83;;;23.90;99.90;;;;;;5123376;27;20317;-68
2022/06/19 04:26:46;;;;;;;2.55;2.00;;;23.90;99.90;;;;;;5125411;27;20202;-69
2022/06/19 04:29:13;;;;;;;2.60;2.13;;;23.90;99.90;;;;;;5118997;27;20224;-69
2022/06/19 04:31:42;;;;;;;4.07;2.20;;;23.90;99.90;;;;;;5120276;27;20201;-68
2022/06/19 04:34:09;;;;;;;2.35;2.00;;;23.90;99.90;;;;;;5123769;27;20225;-67
2022/06/19 04:36:37;;;;;;;2.58;2.20;;;23.90;99.90;;;;;;5119127;27;20646;-67
2022/06/19 04:39:04;;;;;;;3.45;2.22;;;23.90;99.90;;;;;;5120264;27;20614;-68
2022/06/19 04:41:36;;;;;;;2.65;2.00;;;24.00;99.90;;;;;;5117156;27;20197;-69
2022/06/19 04:44:03;;;;;;;3.33;2.22;;;24.00;99.90;;;;;;5119261;27;20210;-67
2022/06/19 04:46:30;;;;;;;2.88;2.10;;;24.00;99.90;;;;;;5115765;27;20285;-67
2022/06/19 04:48:59;;;;;;;2.67;2.15;;;24.00;99.90;;;;;;5124434;27;20550;-68
2022/06/19 04:51:26;;;;;;;3.22;2.03;;;24.00;99.90;;;;;;5116234;27;20202;-70
2022/06/19 04:53:54;;;;;;;2.30;2.10;;;24.00;99.90;;;;;;5121749;27;20313;-69
2022/06/19 04:56:21;;;;;;;3.03;1.98;;;24.00;99.90;;;;;;5116990;27;20674;-68
2022/06/19 04:58:49;;;;;;;2.42;2.03;;;24.10;99.90;;;;;;5119951;27;20251;-68
2022/06/19 05:01:23;;;;;;;2.55;2.30;;;24.10;99.90;;;;;;5117404;27;20716;-69
2022/06/19 05:03:51;;;;;;;2.13;2.00;;;24.20;99.90;;;;;;5113200;27;20221;-68
2022/06/19 05:06:19;;;;;;;2.08;1.88;;;24.20;99.90;;;;;;5124357;27;20203;-66
2022/06/19 05:08:46;;;;;;;3.58;2.00;;;24.40;99.90;;;;;;5109853;27;20209;-69
2022/06/19 05:11:14;;;;;;;2.40;2.15;;;24.50;99.90;;;;;;5120847;27;20197;-67
2022/06/19 05:13:42;;;;;;;2.97;2.13;;;24.60;99.90;;;;;;5111022;27;20258;-68
2022/06/19 05:16:13;;;;;;;3.03;2.33;;;24.70;99.90;;;;;;5112776;27;20202;-68
2022/06/19 05:18:40;;;;;;;2.38;2.17;;;24.80;99.90;;;;;;5120698;27;20735;-68
2022/06/19 05:21:07;;;;;;;3.08;2.22;;;25.00;99.90;;;;;;5117407;27;20229;-68
2022/06/19 05:23:38;;;;;;;1.88;1.77;;;25.10;99.90;;;;;;5122172;27;20295;-67
2022/06/19 05:26:07;;;;;;;2.80;1.90;;;25.20;99.90;;;;;;5094336;22;20239;-62
2022/06/19 05:28:34;;;;;;;2.70;2.15;;;25.30;99.90;;;;;;5017454;28;20293;-62
2022/06/19 05:31:02;;;;;;;2.85;1.80;;;25.40;99.90;;;;;;5031521;28;20689;-62
2022/06/19 05:33:30;;;;;;;2.45;1.98;;;25.50;99.90;;;;;;5030974;28;20290;-60
2022/06/19 05:35:57;;;;;;;2.83;2.10;;;25.60;99.90;;;;;;5031056;28;20244;-61
2022/06/19 05:38:26;;;;;;;2.40;2.20;;;25.70;99.90;;;;;;5031353;28;20213;-63
2022/06/19 05:40:56;;;;;;;2.58;2.10;;;25.70;99.90;;;;;;5031614;28;20290;-63
2022/06/19 05:43:25;;;;;;;1.80;1.70;;;25.70;99.90;;;;;;5031356;28;20200;-63
2022/06/19 05:45:53;;;;;;;2.97;2.22;;;25.90;99.90;;;;;;5031062;28;20303;-63
2022/06/19 05:48:20;;;;;;;2.63;2.15;;;26.00;99.90;;;;;;5031354;28;20209;-62
2022/06/19 05:50:57;;;;;;;2.92;2.10;;;26.20;99.90;;;;;;5032926;28;20250;-62
2022/06/19 05:53:25;;;;;;;2.40;2.20;;;26.30;99.90;;;;;;5034682;28;20266;-64
2022/06/19 05:55:51;;;;;;;2.40;2.13;;;26.40;99.90;;;;;;5046636;28;20232;-61
2022/06/19 05:58:20;;;;;;;2.72;2.10;;;26.60;99.90;;;;;;5030676;28;20718;-61
2022/06/19 06:00:46;;;;;;;2.38;2.17;;;26.70;99.90;;;;;;5035614;28;20291;-62
2022/06/19 06:03:14;;;;;;;3.45;2.67;;;26.70;99.90;;;;;;5034507;28;20200;-61
2022/06/19 06:05:41;;;;;;;2.58;2.38;;;26.80;99.90;;;;;;5026340;28;20781;-61
2022/06/19 06:08:08;;;;;;;2.38;2.13;;;26.90;99.90;;;;;;5024604;28;20275;-61
2022/06/19 06:10:35;;;;;;;2.88;2.13;;;27.10;99.90;;;;;;5024929;28;20197;-64
2022/06/19 06:13:02;;;;;;;2.30;2.10;;;27.20;99.90;;;;;;5035077;28;20235;-62
2022/06/19 06:15:30;;;;;;;2.40;2.20;;;27.30;99.90;;;;;;5023332;28;20636;-62
2022/06/19 06:18:00;;;;;;;2.03;1.83;;;27.40;99.90;;;;;;5026947;28;20201;-63
2022/06/19 06:20:27;;;;;;;2.05;1.95;;;27.50;99.90;;;;;;5030764;28;20228;-62
2022/06/19 06:22:54;;;;;;;2.28;1.88;;;27.70;99.90;;;;;;5022580;28;20292;-61
2022/06/19 06:25:21;;;;;;;3.38;2.25;;;27.80;99.90;;;;;;5027442;28;20610;-63
2022/06/19 06:27:49;;;;;;;2.28;2.08;;;27.90;99.90;;;;;;5020012;28;20204;-61
2022/06/19 06:30:16;;;;;;;2.10;1.90;;;28.10;99.90;;;;;;5026224;28;20655;-61
2022/06/19 06:32:44;;;;;;;3.10;2.10;;;28.30;99.90;;;;;;5021287;28;20293;-60
2022/06/19 06:35:11;;;;;;;2.00;1.77;;;28.40;99.90;;;;;;5032570;28;20249;-61
2022/06/19 06:37:38;;;;;;;2.08;1.88;;;28.50;99.90;;;;;;5035974;28;20337;-60
2022/06/19 06:40:06;;;;;;;1.98;1.70;;;28.60;99.90;;;;;;5036030;28;20292;-61
2022/06/19 06:42:34;;;;;;;1.92;1.75;;;28.80;99.90;;;;;;5035368;28;20659;-60
2022/06/19 06:45:01;;;;;;;2.10;1.67;;;28.90;99.90;;;;;;5036147;28;20287;-58
2022/06/19 06:47:28;;;;;;;2.25;1.90;;;29.00;99.90;;;;;;5031468;28;20227;-59
2022/06/19 06:49:56;;;;;;;2.25;2.05;;;29.10;99.90;;;;;;5035390;28;20224;-61
2022/06/19 06:52:23;;;;;;;2.17;2.00;;;29.20;99.90;;;;;;5033617;28;20233;-61
2022/06/19 06:54:50;;;;;;;2.40;2.03;;;29.30;99.90;;;;;;5035229;28;20235;-60
2022/06/19 06:57:17;;;;;;;2.10;1.83;;;29.40;99.90;;;;;;5034716;28;20231;-60
2022/06/19 06:59:43;;;;;;;2.13;1.92;;;29.50;99.90;;;;;;5032923;28;20570;-60
2022/06/19 07:02:11;;;;;;;2.92;2.20;;;29.60;99.90;;;;;;5035088;28;20288;-60
2022/06/19 07:04:38;;;;;;;2.75;2.50;;;29.80;99.90;;;;;;5034930;28;20204;-61
2022/06/19 07:07:06;;;;;;;3.53;2.30;;;29.80;99.90;;;;;;5034034;28;20250;-60
2022/06/19 07:09:33;;;;;;;2.53;2.33;;;30.00;99.90;;;;;;5034086;28;20268;-60
2022/06/19 07:12:02;;;;;;;2.25;2.00;;;30.10;99.90;;;;;;5036578;28;20229;-61
2022/06/19 07:14:29;;;;;;;2.55;2.35;;;30.20;99.90;;;;;;5035838;28;20227;-62
2022/06/19 07:16:56;;;;;;;3.30;2.50;;;30.40;99.90;;;;;;5036952;28;20225;-61
2022/06/19 07:19:23;;;;;;;2.50;2.30;;;30.50;99.90;;;;;;5031967;28;20287;-62
2022/06/19 07:21:50;;;;;;;2.08;1.88;;;30.60;99.90;;;;;;5033709;28;20227;-62
2022/06/19 07:24:18;;;;;;;1.95;1.80;;;30.70;99.90;;;;;;5033763;28;20219;-62
2022/06/19 07:26:45;;;;;;;2.20;2.00;;;30.80;99.90;;;;;;5032031;28;20232;-62
2022/06/19 07:29:12;;;;;;;2.35;2.08;;;31.00;99.90;;;;;;5030780;28;20239;-62
2022/06/19 07:31:39;;;;;;;2.22;2.03;;;31.20;99.90;;;;;;5022145;28;20243;-62
2022/06/19 07:34:06;;;;;;;2.17;1.98;;;31.40;99.90;;;;;;5025193;28;20655;-63
2022/06/19 07:36:33;;;;;;;2.03;1.92;;;31.50;99.90;;;;;;5031537;28;20230;-62
2022/06/19 07:39:00;;;;;;;2.08;1.98;;;31.60;99.90;;;;;;5032253;28;20197;-61
2022/06/19 07:41:28;;;;;;;3.33;2.17;;;31.80;99.90;;;;;;5024466;28;20197;-62
2022/06/19 07:43:56;;;;;;;2.95;2.10;;;31.90;99.90;;;;;;5021891;28;20239;-62
2022/06/19 07:46:24;;;;;;;2.20;2.00;;;32.10;99.90;;;;;;5031772;28;20224;-63
2022/06/19 07:51:36;;;;;;;2.15;2.00;;;32.40;99.90;;;;;;5029942;28;20247;-61
2022/06/19 07:54:03;;;;;;;2.13;1.92;;;32.60;99.90;;;;;;5025346;28;20202;-63
2022/06/19 07:56:32;;;;;;;1.90;1.80;;;32.60;99.90;;;;;;5023611;28;20680;-62
2022/06/19 07:58:59;;;;;;;2.33;2.13;;;32.70;99.90;;;;;;5027938;28;20202;-63
2022/06/19 08:01:27;;;;;;;3.75;1.95;;;32.80;99.90;;;;;;5025098;28;20207;-62
2022/06/19 08:03:54;;;;;;;2.20;1.85;;;32.80;99.90;;;;;;5022905;28;20208;-62
2022/06/19 08:06:20;;;;;;;2.55;1.88;;;32.90;99.70;;;;;;5028573;28;20596;-63
2022/06/19 08:08:47;;;;;;;2.95;1.90;;;33.00;99.90;;;;;;5022332;28;20198;-63
2022/06/19 08:11:14;;;;;;;1.80;1.70;;;33.10;99.60;;;;;;5026379;28;20207;-62
2022/06/19 08:13:43;;;;;;;1.90;1.80;;;33.30;99.80;;;;;;5022211;28;20285;-62
2022/06/19 08:16:11;;;;;;;1.92;1.80;;;33.30;99.30;;;;;;5026324;28;20307;-62
2022/06/19 08:18:39;;;;;;;2.10;2.00;;;33.40;99.40;;;;;;5022446;28;20211;-61
2022/06/19 08:21:05;;;;;;;2.08;1.88;;;33.50;97.80;;;;;;5024946;28;20654;-62
2022/06/19 08:23:33;;;;;;;1.95;1.80;;;33.50;98.50;;;;;;5029773;28;20299;-62
2022/06/19 08:26:00;;;;;;;1.88;1.77;;;33.50;97.90;;;;;;5021789;28;20316;-63
2022/06/19 08:28:31;;;;;;;2.90;1.92;;;33.60;97.90;;;;;;5028908;28;20674;-63
2022/06/19 08:31:00;;;;;;;2.00;1.90;;;33.80;97.80;;;;;;5025544;28;20192;-61
2022/06/19 08:33:27;;;;;;;2.15;1.95;;;33.80;97.50;;;;;;5032437;28;20197;-62
2022/06/19 08:36:00;;;;;;;2.00;1.80;;;33.80;96.80;;;;;;5032570;28;20261;-63
2022/06/19 08:38:33;;;;;;;1.70;1.60;;;33.80;97.10;;;;;;5027624;28;20205;-63
2022/06/19 08:41:20;;;;;;;2.05;1.70;;;33.90;97.60;;;;;;5036833;28;20747;-61
2022/06/19 08:44:22;;;;;;;1.60;1.50;;;34.00;96.40;;;;;;5036381;28;20196;-63
2022/06/19 08:47:02;;;;;;;2.15;1.98;;;34.10;96.20;;;;;;5041863;28;20223;-62
2022/06/19 08:49:49;;;;;;;1.80;1.70;;;34.30;95.20;;;;;;5041619;28;20208;-62
2022/06/19 08:52:29;;;;;;;2.35;1.80;;;34.30;95.80;;;;;;5033482;28;20287;-61
2022/06/19 08:55:09;;;;;;;2.20;2.00;;;34.30;95.50;;;;;;5026777;28;20214;-62
2022/06/19 08:57:42;;;;;;;1.90;1.80;;;34.40;95.30;;;;;;5030914;28;20266;-63
2022/06/19 09:00:16;;;;;;;2.83;2.00;;;34.40;95.10;;;;;;5032750;28;20746;-62
2022/06/19 09:02:55;;;;;;;2.58;1.90;;;34.50;94.00;;;;;;5027618;28;20201;-62
2022/06/19 09:05:45;;;;;;;1.98;1.88;;;34.60;94.90;;;;;;5031366;28;20299;-61
2022/06/19 09:08:42;;;;;;;1.70;1.60;;;34.70;94.10;;;;;;5031591;28;20193;-61
2022/06/19 09:11:37;;;;;;;2.53;1.83;;;34.70;93.70;;;;;;5027133;28;20265;-61
2022/06/19 09:14:17;;;;;;;1.70;1.60;;;34.70;92.70;;;;;;5029522;28;20237;-62
2022/06/19 09:16:53;;;;;;;2.08;1.92;;;34.70;93.10;;;;;;5028699;28;20220;-62
2022/06/19 09:19:27;;;;;;;1.83;1.73;;;34.80;93.30;;;;;;5029094;28;20196;-62
2022/06/19 09:22:09;;;;;;;1.98;1.77;;;34.80;92.60;;;;;;5030370;28;20286;-64
2022/06/19 09:24:52;;;;;;;3.45;1.85;;;34.90;92.90;;;;;;5034154;28;20566;-62
2022/06/19 09:27:23;;;;;;;2.45;1.70;;;35.00;92.70;;;;;;5029796;28;20232;-64
2022/06/19 09:29:58;;;;;;;1.90;1.70;;;35.00;93.30;;;;;;5031613;28;20292;-63
2022/06/19 09:32:31;;;;;;;1.80;1.70;;;35.10;93.70;;;;;;5028020;28;20211;-63
2022/06/19 09:35:05;;;;;;;3.70;2.10;;;35.10;93.10;;;;;;5030421;28;20694;-63
2022/06/19 09:37:40;;;;;;;2.00;1.80;;;35.20;92.70;;;;;;5031056;28;20224;-62
2022/06/19 09:40:15;;;;;;;3.33;1.88;;;35.20;93.00;;;;;;5029226;28;20196;-62
2022/06/19 09:42:48;;;;;;;1.90;1.80;;;35.20;93.20;;;;;;5036274;28;20234;-61
2022/06/19 09:45:20;;;;;;;2.25;1.80;;;35.30;93.60;;;;;;5030619;28;20205;-61
2022/06/19 09:47:53;;;;;;;2.65;1.75;;;35.40;94.00;;;;;;5032935;28;20243;-62
2022/06/19 09:50:29;;;;;;;3.05;2.00;;;35.50;93.20;;;;;;5027279;28;20269;-62
2022/06/19 09:53:04;;;;;;;2.28;1.90;;;35.50;92.90;;;;;;5033964;28;20804;-63
2022/06/19 09:55:36;;;;;;;2.63;1.60;;;35.50;92.00;;;;;;5031066;28;20212;-65
2022/06/19 09:58:12;;;;;;;1.90;1.80;;;35.50;92.50;;;;;;5026143;28;20264;-63
2022/06/19 10:00:41;;;;;;;2.63;1.52;;;35.50;92.00;;;;;;5013284;28;20209;-63
2022/06/19 10:03:18;;;;;;;2.72;1.80;;;35.60;92.00;;;;;;5025600;28;20208;-62
2022/06/19 10:05:51;;;;;;;1.90;1.80;;;35.60;91.30;;;;;;5023067;28;20267;-62
2022/06/19 10:08:24;;;;;;;1.55;1.45;;;35.80;91.30;;;;;;5029651;28;20208;-62
2022/06/19 10:10:55;;;;;;;2.50;1.63;;;35.70;91.40;;;;;;5032894;28;20203;-63
2022/06/19 10:13:30;;;;;;;2.10;1.90;;;35.80;90.50;;;;;;5034644;28;20300;-62
2022/06/19 10:15:59;;;;;;;1.60;1.50;;;35.80;90.80;;;;;;5034521;28;20232;-62
2022/06/19 10:18:31;;;;;;;1.80;1.70;;;35.80;90.60;;;;;;5032471;28;20208;-62
2022/06/19 10:21:05;;;;;;;1.80;1.70;;;36.00;91.10;;;;;;5032212;28;20212;-62
2022/06/19 10:23:49;;;;;;;2.97;2.17;;;36.00;90.50;;;;;;5034850;28;20291;-64
2022/06/19 10:26:39;;;;;;;2.13;1.90;;;36.00;90.70;;;;;;5030669;28;20641;-63
2022/06/19 10:29:19;;;;;;;2.70;1.70;;;36.10;91.60;;;;;;5026374;28;20648;-63
2022/06/19 10:32:07;;;;;;;1.98;1.88;;;36.20;90.90;;;;;;5028529;28;20289;-62
2022/06/19 10:34:49;;;;;;;3.40;1.80;;;36.20;91.10;;;;;;5032548;28;20872;-62
2022/06/19 10:37:31;;;;;;;1.70;1.60;;;36.40;91.10;;;;;;5019075;28;20216;-64
2022/06/19 10:40:10;;;;;;;1.70;1.60;;;36.50;91.10;;;;;;5033432;28;20220;-63
2022/06/19 10:42:47;;;;;;;2.03;1.83;;;36.50;91.20;;;;;;5032863;28;20725;-62
2022/06/19 10:45:34;;;;;;;1.73;1.63;;;36.50;90.50;;;;;;5029404;28;20232;-62
2022/06/19 10:48:22;;;;;;;1.92;1.83;;;36.50;90.90;;;;;;5034306;28;20288;-63
2022/06/19 10:51:00;;;;;;;1.70;1.60;;;36.60;91.20;;;;;;5032842;28;20205;-62
2022/06/19 10:53:52;;;;;;;1.80;1.70;;;36.70;90.90;;;;;;5034493;28;20228;-64
2022/06/19 10:56:29;;;;;;;1.80;1.70;;;36.70;90.40;;;;;;5030944;28;20709;-63
2022/06/19 10:58:57;;;;;;;1.88;1.77;;;36.80;91.00;;;;;;5028548;28;20239;-64
2022/06/19 11:04:24;;;;;;;2.28;1.98;;;37.00;91.00;;;;;;5033166;28;20215;-63
2022/06/19 11:06:55;;;;;;;1.58;1.48;;;37.20;91.10;;;;;;5028228;28;20225;-65
2022/06/19 11:09:29;;;;;;;1.98;1.88;;;37.00;90.50;;;;;;5026053;28;20204;-62
2022/06/19 11:12:02;;;;;;;2.47;1.88;;;37.00;90.40;;;;;;5024040;28;20748;-63
2022/06/19 11:14:33;;;;;;;2.10;1.90;;;37.00;90.40;;;;;;5028036;28;20205;-63
2022/06/19 11:17:04;;;;;;;2.97;1.70;;;36.90;88.80;;;;;;5022919;28;20687;-63
2022/06/19 11:19:38;;;;;;;1.95;1.70;;;36.80;89.20;;;;;;5024351;28;20197;-63
2022/06/19 11:22:08;;;;;;;2.17;1.83;;;36.80;88.50;;;;;;5034662;28;20204;-63
2022/06/19 11:24:39;;;;;;;2.03;1.50;;;36.70;87.10;;;;;;5034856;28;20270;-63
2022/06/19 11:27:17;;;;;;;1.50;1.40;;;36.70;87.80;;;;;;5027555;28;20319;-65
2022/06/19 11:29:46;;;;;;;2.03;1.92;;;36.70;87.40;;;;;;5030673;28;20235;-63
2022/06/19 11:32:15;;;;;;;1.88;1.52;;;36.70;85.70;;;;;;5041822;28;20626;-62
2022/06/19 11:34:54;;;;;;;1.88;1.70;;;36.50;86.40;;;;;;5041745;28;20304;-65
2022/06/19 11:37:25;;;;;;;1.88;1.77;;;36.50;87.00;;;;;;5036148;28;20236;-63
2022/06/19 11:39:55;;;;;;;3.28;1.70;;;36.50;85.90;;;;;;5035609;28;20233;-63
2022/06/19 11:42:33;;;;;;;1.80;1.70;;;36.60;87.80;;;;;;5035557;28;20295;-64
2022/06/19 11:45:04;;;;;;;1.88;1.67;;;36.70;86.30;;;;;;5036320;28;20192;-63
2022/06/19 11:47:36;;;;;;;2.60;1.73;;;36.60;85.00;;;;;;5046329;28;20248;-63
2022/06/19 11:50:16;;;;;;;1.73;1.60;;;36.40;84.80;;;;;;5042135;28;20740;-62
2022/06/19 11:52:49;;;;;;;1.63;1.52;;;36.50;86.20;;;;;;5039726;28;20228;-62
2022/06/19 11:55:25;;;;;;;1.95;1.77;;;36.60;83.90;;;;;;5034710;28;20220;-62
2022/06/19 11:57:56;;;;;;;2.30;1.67;;;36.50;85.40;;;;;;5033209;28;20247;-62
2022/06/19 12:00:28;;;;;;;1.80;1.70;;;36.80;86.20;;;;;;5032494;28;20691;-63
2022/06/19 12:02:57;;;;;;;1.75;1.65;;;36.90;86.80;;;;;;5034876;28;20291;-62
2022/06/19 12:05:27;;;;;;;2.53;1.38;;;37.10;86.20;;;;;;5032253;28;20203;-63
2022/06/19 12:07:55;;;;;;;2.00;1.63;;;37.10;85.00;;;;;;5031088;28;20205;-62
2022/06/19 12:10:27;;;;;;;2.85;1.77;;;36.90;83.70;;;;;;5033354;28;20209;-62
2022/06/19 12:12:56;;;;;;;1.70;1.60;;;36.80;84.60;;;;;;5030179;28;20296;-62
2022/06/19 12:15:26;;;;;;;1.92;1.70;;;36.70;84.50;;;;;;5032096;28;20594;-62
2022/06/19 12:17:59;;;;;;;1.92;1.48;;;36.90;84.40;;;;;;5033509;28;20640;-61
2022/06/19 12:20:29;;;;;;;2.53;1.80;;;37.00;84.20;;;;;;5033701;28;20880;-62
2022/06/19 12:23:02;;;;;;;2.40;1.80;;;37.10;84.30;;;;;;5034534;28;20232;-63
2022/06/19 12:25:40;;;;;;;1.75;1.60;;;37.20;84.50;;;;;;5036033;28;20214;-64
2022/06/19 12:28:14;;;;;;;2.00;1.45;;;37.20;83.30;;;;;;5037994;28;20200;-63
2022/06/19 12:30:44;;;;;;;2.92;1.75;;;37.20;84.00;;;;;;5039240;28;20205;-63
2022/06/19 12:33:17;;;;;;;2.28;1.67;;;37.10;83.10;;;;;;5038331;28;20663;-61
2022/06/19 12:35:47;;;;;;;1.60;1.45;;;37.10;83.20;;;;;;5035479;28;20233;-62
2022/06/19 12:38:16;;;;;;;2.28;1.73;;;37.10;84.70;;;;;;5038858;28;20711;-61
2022/06/19 12:40:58;;;;;;;3.75;1.95;;;37.20;82.80;;;;;;5034501;28;20239;-63
2022/06/19 12:43:32;;;;;;;1.50;1.40;;;37.20;82.70;;;;;;5026425;28;20215;-64
2022/06/19 12:45:59;;;;;;;1.70;1.50;;;37.10;82.30;;;;;;5030704;28;20259;-63
2022/06/19 12:48:35;;;;;;;1.75;1.65;;;37.20;83.10;;;;;;5030957;28;20213;-62
2022/06/19 12:51:08;;;;;;;2.10;1.73;;;37.40;79.10;;;;;;5032313;28;20655;-62
2022/06/19 12:54:05;;;;;;;3.33;1.90;;;37.50;81.20;;;;;;5030774;28;20685;-62
2022/06/19 12:56:43;;;;;;;4.22;1.75;;;37.50;77.80;;;;;;5000628;28;20242;-63
2022/06/19 12:59:58;;;;;;;1.58;1.48;;;37.60;77.20;;;;;;5032496;28;20637;-63
2022/06/19 13:02:37;;;;;;;2.10;1.70;;;37.60;77.10;;;;;;4970357;28;20210;-63
2022/06/19 13:05:15;;;;;;;2.72;1.60;;;37.70;77.20;;;;;;5028462;28;20319;-64
2022/06/19 13:07:55;;;;;;;1.60;1.50;;;37.80;77.30;;;;;;5028506;28;20203;-64
2022/06/19 13:10:46;;;;;;;2.08;1.60;;;37.90;77.40;;;;;;5030435;28;20574;-62
2022/06/19 13:13:48;;;;;;;1.85;1.50;;;38.00;76.10;;;;;;5029514;28;20287;-63
2022/06/19 13:16:22;;;;;;;3.35;1.80;;;38.00;75.80;;;;;;4996422;28;20228;-65